sensor_id;sensor_type;location;lat;lon;timestamp;P1;durP1;ratioP1;P2;durP2;ratioP2
66270;SDS011;53063;39.614;8.814;2023-03-01T00:01:59;2.80;;;1.63;;
66270;SDS011;53063;39.614;8.814;2023-03-01T00:04:25;4.68;;;1.77;;
66270;SDS011;53063;39.614;8.814;2023-03-01T00:06:51;4.40;;;1.45;;
66270;SDS011;53063;39.614;8.814;2023-03-01T00:09:17;4.45;;;1.83;;
66270;SDS011;53063;39.614;8.814;2023-03-01T00:11:43;4.25;;;1.73;;
66270;SDS011;53063;39.614;8.814;2023-03-01T00:14:09;3.05;;;1.65;;
66270;SDS011;53063;39.614;8.814;2023-03-01T00:16:36;6.18;;;2.30;;
66270;SDS011;53063;39.614;8.814;2023-03-01T00:19:04;3.97;;;1.63;;
66270;SDS011;53063;39.614;8.814;2023-03-01T00:21:31;7.95;;;1.95;;
66270;SDS011;53063;39.614;8.814;2023-03-01T00:23:57;3.50;;;2.22;;
66270;SDS011;53063;39.614;8.814;2023-03-01T00:26:24;5.60;;;2.28;;
66270;SDS011;53063;39.614;8.814;2023-03-01T00:28:51;5.25;;;1.98;;
66270;SDS011;53063;39.614;8.814;2023-03-01T00:31:19;7.32;;;2.47;;
66270;SDS011;53063;39.614;8.814;2023-03-01T00:33:46;6.30;;;3.03;;
66270;SDS011;53063;39.614;8.814;2023-03-01T00:36:13;9.27;;;2.78;;
66270;SDS011;53063;39.614;8.814;2023-03-01T00:38:41;12.38;;;4.38;;
66270;SDS011;53063;39.614;8.814;2023-03-01T00:41:10;7.88;;;3.55;;
66270;SDS011;53063;39.614;8.814;2023-03-01T00:43:40;13.95;;;3.63;;
66270;SDS011;53063;39.614;8.814;2023-03-01T00:46:08;7.75;;;3.22;;
66270;SDS011;53063;39.614;8.814;2023-03-01T00:48:36;11.65;;;3.35;;
66270;SDS011;53063;39.614;8.814;2023-03-01T00:51:10;6.07;;;2.45;;
66270;SDS011;53063;39.614;8.814;2023-03-01T00:53:37;5.10;;;2.17;;
66270;SDS011;53063;39.614;8.814;2023-03-01T00:56:04;4.00;;;1.50;;
66270;SDS011;53063;39.614;8.814;2023-03-01T00:58:31;2.25;;;1.45;;
66270;SDS011;53063;39.614;8.814;2023-03-01T01:00:57;4.13;;;1.60;;
66270;SDS011;53063;39.614;8.814;2023-03-01T01:03:23;2.78;;;1.10;;
66270;SDS011;53063;39.614;8.814;2023-03-01T01:05:52;2.78;;;1.02;;
66270;SDS011;53063;39.614;8.814;2023-03-01T01:08:19;2.80;;;1.63;;
66270;SDS011;53063;39.614;8.814;2023-03-01T01:10:46;5.97;;;3.05;;
66270;SDS011;53063;39.614;8.814;2023-03-01T01:13:12;6.43;;;1.90;;
66270;SDS011;53063;39.614;8.814;2023-03-01T01:15:39;1.85;;;0.88;;
66270;SDS011;53063;39.614;8.814;2023-03-01T01:18:05;1.17;;;0.57;;
66270;SDS011;53063;39.614;8.814;2023-03-01T01:20:32;1.90;;;0.90;;
66270;SDS011;53063;39.614;8.814;2023-03-01T01:22:58;4.85;;;1.30;;
66270;SDS011;53063;39.614;8.814;2023-03-01T01:25:23;3.20;;;1.00;;
66270;SDS011;53063;39.614;8.814;2023-03-01T01:27:53;2.13;;;1.30;;
66270;SDS011;53063;39.614;8.814;2023-03-01T01:30:19;4.07;;;1.60;;
66270;SDS011;53063;39.614;8.814;2023-03-01T01:32:45;2.28;;;1.35;;
66270;SDS011;53063;39.614;8.814;2023-03-01T01:35:10;1.10;;;0.90;;
66270;SDS011;53063;39.614;8.814;2023-03-01T01:37:36;3.00;;;1.00;;
66270;SDS011;53063;39.614;8.814;2023-03-01T01:40:02;1.73;;;0.90;;
66270;SDS011;53063;39.614;8.814;2023-03-01T01:42:29;1.80;;;0.80;;
66270;SDS011;53063;39.614;8.814;2023-03-01T01:47:55;1.27;;;0.70;;
66270;SDS011;53063;39.614;8.814;2023-03-01T01:50:25;2.95;;;0.88;;
66270;SDS011;53063;39.614;8.814;2023-03-01T01:52:52;1.90;;;0.68;;
66270;SDS011;53063;39.614;8.814;2023-03-01T01:55:24;6.65;;;0.82;;
66270;SDS011;53063;39.614;8.814;2023-03-01T01:57:56;1.17;;;0.60;;
66270;SDS011;53063;39.614;8.814;2023-03-01T02:00:27;4.00;;;0.70;;
66270;SDS011;53063;39.614;8.814;2023-03-01T02:02:55;1.20;;;0.52;;
66270;SDS011;53063;39.614;8.814;2023-03-01T02:08:16;0.65;;;0.60;;
66270;SDS011;53063;39.614;8.814;2023-03-01T02:10:45;1.83;;;0.85;;
66270;SDS011;53063;39.614;8.814;2023-03-01T02:13:13;2.25;;;0.80;;
66270;SDS011;53063;39.614;8.814;2023-03-01T02:15:39;2.95;;;0.65;;
66270;SDS011;53063;39.614;8.814;2023-03-01T02:18:06;2.78;;;0.50;;
66270;SDS011;53063;39.614;8.814;2023-03-01T02:20:58;1.65;;;0.57;;
66270;SDS011;53063;39.614;8.814;2023-03-01T02:23:36;1.95;;;0.70;;
66270;SDS011;53063;39.614;8.814;2023-03-01T02:28:58;2.75;;;0.80;;
66270;SDS011;53063;39.614;8.814;2023-03-01T02:31:24;2.75;;;0.47;;
66270;SDS011;53063;39.614;8.814;2023-03-01T02:34:14;0.57;;;0.57;;
66270;SDS011;53063;39.614;8.814;2023-03-01T02:36:47;0.87;;;0.60;;
66270;SDS011;53063;39.614;8.814;2023-03-01T02:39:23;2.22;;;0.95;;
66270;SDS011;53063;39.614;8.814;2023-03-01T02:41:59;1.77;;;0.80;;
66270;SDS011;53063;39.614;8.814;2023-03-01T02:44:28;2.00;;;0.65;;
66270;SDS011;53063;39.614;8.814;2023-03-01T02:46:55;1.83;;;0.70;;
66270;SDS011;53063;39.614;8.814;2023-03-01T02:49:26;1.25;;;0.60;;
66270;SDS011;53063;39.614;8.814;2023-03-01T02:54:58;1.73;;;0.65;;
66270;SDS011;53063;39.614;8.814;2023-03-01T02:57:45;0.30;;;0.30;;
66270;SDS011;53063;39.614;8.814;2023-03-01T03:00:20;1.02;;;0.50;;
66270;SDS011;53063;39.614;8.814;2023-03-01T03:02:53;0.90;;;0.45;;
66270;SDS011;53063;39.614;8.814;2023-03-01T03:05:24;0.68;;;0.40;;
66270;SDS011;53063;39.614;8.814;2023-03-01T03:07:58;1.10;;;0.52;;
66270;SDS011;53063;39.614;8.814;2023-03-01T03:10:30;0.95;;;0.50;;
66270;SDS011;53063;39.614;8.814;2023-03-01T03:13:03;1.90;;;0.98;;
66270;SDS011;53063;39.614;8.814;2023-03-01T03:15:31;3.83;;;1.20;;
66270;SDS011;53063;39.614;8.814;2023-03-01T03:18:01;1.85;;;1.20;;
66270;SDS011;53063;39.614;8.814;2023-03-01T03:20:28;1.58;;;0.90;;
66270;SDS011;53063;39.614;8.814;2023-03-01T03:22:55;5.05;;;1.55;;
66270;SDS011;53063;39.614;8.814;2023-03-01T03:25:23;2.80;;;1.50;;
66270;SDS011;53063;39.614;8.814;2023-03-01T03:27:51;1.63;;;1.23;;
66270;SDS011;53063;39.614;8.814;2023-03-01T03:30:28;3.00;;;1.25;;
66270;SDS011;53063;39.614;8.814;2023-03-01T03:32:56;2.25;;;1.13;;
66270;SDS011;53063;39.614;8.814;2023-03-01T03:35:31;1.75;;;0.98;;
66270;SDS011;53063;39.614;8.814;2023-03-01T03:38:00;1.08;;;0.60;;
66270;SDS011;53063;39.614;8.814;2023-03-01T03:40:36;3.83;;;0.80;;
66270;SDS011;53063;39.614;8.814;2023-03-01T03:43:04;3.65;;;0.93;;
66270;SDS011;53063;39.614;8.814;2023-03-01T03:45:36;1.95;;;0.90;;
66270;SDS011;53063;39.614;8.814;2023-03-01T03:48:03;2.60;;;0.90;;
66270;SDS011;53063;39.614;8.814;2023-03-01T03:50:30;2.88;;;0.68;;
66270;SDS011;53063;39.614;8.814;2023-03-01T03:52:56;6.72;;;0.80;;
66270;SDS011;53063;39.614;8.814;2023-03-01T03:55:22;1.88;;;1.23;;
66270;SDS011;53063;39.614;8.814;2023-03-01T03:57:54;3.42;;;1.10;;
66270;SDS011;53063;39.614;8.814;2023-03-01T04:00:23;7.72;;;1.27;;
66270;SDS011;53063;39.614;8.814;2023-03-01T04:02:49;2.97;;;1.70;;
66270;SDS011;53063;39.614;8.814;2023-03-01T04:05:17;6.10;;;1.90;;
66270;SDS011;53063;39.614;8.814;2023-03-01T04:07:44;3.72;;;1.83;;
66270;SDS011;53063;39.614;8.814;2023-03-01T04:10:11;4.45;;;2.33;;
66270;SDS011;53063;39.614;8.814;2023-03-01T04:12:39;2.95;;;2.05;;
66270;SDS011;53063;39.614;8.814;2023-03-01T04:15:05;2.70;;;2.00;;
66270;SDS011;53063;39.614;8.814;2023-03-01T04:17:42;5.43;;;1.88;;
66270;SDS011;53063;39.614;8.814;2023-03-01T04:20:10;3.55;;;2.15;;
66270;SDS011;53063;39.614;8.814;2023-03-01T04:22:38;5.75;;;2.13;;
66270;SDS011;53063;39.614;8.814;2023-03-01T04:25:05;6.80;;;2.45;;
66270;SDS011;53063;39.614;8.814;2023-03-01T04:27:33;4.40;;;2.55;;
66270;SDS011;53063;39.614;8.814;2023-03-01T04:29:59;4.05;;;2.65;;
66270;SDS011;53063;39.614;8.814;2023-03-01T04:32:26;5.80;;;2.45;;
66270;SDS011;53063;39.614;8.814;2023-03-01T04:34:51;3.72;;;2.30;;
66270;SDS011;53063;39.614;8.814;2023-03-01T04:37:17;4.90;;;2.58;;
66270;SDS011;53063;39.614;8.814;2023-03-01T04:39:43;3.42;;;2.35;;
66270;SDS011;53063;39.614;8.814;2023-03-01T04:42:13;5.22;;;2.60;;
66270;SDS011;53063;39.614;8.814;2023-03-01T04:44:40;3.67;;;2.25;;
66270;SDS011;53063;39.614;8.814;2023-03-01T04:47:06;4.97;;;2.55;;
66270;SDS011;53063;39.614;8.814;2023-03-01T04:49:32;4.25;;;2.40;;
66270;SDS011;53063;39.614;8.814;2023-03-01T04:51:57;5.22;;;2.35;;
66270;SDS011;53063;39.614;8.814;2023-03-01T04:54:34;6.70;;;2.58;;
66270;SDS011;53063;39.614;8.814;2023-03-01T04:57:01;4.15;;;2.22;;
66270;SDS011;53063;39.614;8.814;2023-03-01T04:59:28;4.75;;;2.42;;
66270;SDS011;53063;39.614;8.814;2023-03-01T05:01:55;4.10;;;2.00;;
66270;SDS011;53063;39.614;8.814;2023-03-01T05:04:21;10.02;;;4.22;;
66270;SDS011;53063;39.614;8.814;2023-03-01T05:06:48;9.38;;;4.20;;
66270;SDS011;53063;39.614;8.814;2023-03-01T05:09:14;14.27;;;5.25;;
66270;SDS011;53063;39.614;8.814;2023-03-01T05:11:40;7.55;;;3.53;;
66270;SDS011;53063;39.614;8.814;2023-03-01T05:14:06;3.08;;;1.60;;
66270;SDS011;53063;39.614;8.814;2023-03-01T05:16:33;39.92;;;17.10;;
66270;SDS011;53063;39.614;8.814;2023-03-01T05:19:01;59.97;;;22.10;;
66270;SDS011;53063;39.614;8.814;2023-03-01T05:21:37;31.85;;;12.90;;
66270;SDS011;53063;39.614;8.814;2023-03-01T05:24:26;14.45;;;6.20;;
66270;SDS011;53063;39.614;8.814;2023-03-01T05:26:53;16.75;;;6.78;;
66270;SDS011;53063;39.614;8.814;2023-03-01T05:29:23;7.38;;;2.80;;
66270;SDS011;53063;39.614;8.814;2023-03-01T05:31:51;4.43;;;1.55;;
66270;SDS011;53063;39.614;8.814;2023-03-01T05:34:24;3.88;;;1.77;;
66270;SDS011;53063;39.614;8.814;2023-03-01T05:36:52;3.50;;;1.58;;
66270;SDS011;53063;39.614;8.814;2023-03-01T05:39:25;3.63;;;1.98;;
66270;SDS011;53063;39.614;8.814;2023-03-01T05:41:53;5.32;;;1.63;;
66270;SDS011;53063;39.614;8.814;2023-03-01T05:44:20;5.50;;;2.08;;
66270;SDS011;53063;39.614;8.814;2023-03-01T05:46:46;3.80;;;2.40;;
66270;SDS011;53063;39.614;8.814;2023-03-01T05:49:12;7.30;;;3.72;;
66270;SDS011;53063;39.614;8.814;2023-03-01T05:51:42;8.10;;;3.25;;
66270;SDS011;53063;39.614;8.814;2023-03-01T05:54:12;4.90;;;3.00;;
66270;SDS011;53063;39.614;8.814;2023-03-01T05:56:38;4.93;;;2.38;;
66270;SDS011;53063;39.614;8.814;2023-03-01T05:59:04;5.97;;;2.85;;
66270;SDS011;53063;39.614;8.814;2023-03-01T06:01:31;4.65;;;2.97;;
66270;SDS011;53063;39.614;8.814;2023-03-01T06:03:58;4.80;;;2.75;;
66270;SDS011;53063;39.614;8.814;2023-03-01T06:06:24;12.63;;;5.38;;
66270;SDS011;53063;39.614;8.814;2023-03-01T06:08:50;12.38;;;6.75;;
66270;SDS011;53063;39.614;8.814;2023-03-01T06:11:17;17.10;;;6.95;;
66270;SDS011;53063;39.614;8.814;2023-03-01T06:13:43;9.25;;;2.70;;
66270;SDS011;53063;39.614;8.814;2023-03-01T06:16:10;5.07;;;2.00;;
66270;SDS011;53063;39.614;8.814;2023-03-01T06:18:37;6.82;;;3.13;;
66270;SDS011;53063;39.614;8.814;2023-03-01T06:21:04;9.10;;;2.50;;
66270;SDS011;53063;39.614;8.814;2023-03-01T06:23:30;5.50;;;2.63;;
66270;SDS011;53063;39.614;8.814;2023-03-01T06:25:57;5.40;;;3.05;;
66270;SDS011;53063;39.614;8.814;2023-03-01T06:28:22;6.30;;;3.33;;
66270;SDS011;53063;39.614;8.814;2023-03-01T06:30:51;8.13;;;2.72;;
66270;SDS011;53063;39.614;8.814;2023-03-01T06:33:18;5.05;;;2.58;;
66270;SDS011;53063;39.614;8.814;2023-03-01T06:35:48;3.47;;;1.90;;
66270;SDS011;53063;39.614;8.814;2023-03-01T06:38:14;5.18;;;2.00;;
66270;SDS011;53063;39.614;8.814;2023-03-01T06:40:40;5.75;;;2.22;;
66270;SDS011;53063;39.614;8.814;2023-03-01T06:43:06;8.82;;;3.63;;
66270;SDS011;53063;39.614;8.814;2023-03-01T06:45:32;15.38;;;5.10;;
66270;SDS011;53063;39.614;8.814;2023-03-01T06:48:02;6.88;;;2.78;;
66270;SDS011;53063;39.614;8.814;2023-03-01T06:50:29;24.77;;;9.27;;
66270;SDS011;53063;39.614;8.814;2023-03-01T06:52:56;26.40;;;12.55;;
66270;SDS011;53063;39.614;8.814;2023-03-01T06:55:22;14.45;;;7.70;;
66270;SDS011;53063;39.614;8.814;2023-03-01T06:57:48;11.27;;;6.75;;
66270;SDS011;53063;39.614;8.814;2023-03-01T07:00:14;10.93;;;6.15;;
66270;SDS011;53063;39.614;8.814;2023-03-01T07:02:40;13.57;;;7.78;;
66270;SDS011;53063;39.614;8.814;2023-03-01T07:05:06;9.93;;;5.93;;
66270;SDS011;53063;39.614;8.814;2023-03-01T07:07:32;6.68;;;3.38;;
66270;SDS011;53063;39.614;8.814;2023-03-01T07:09:58;2.35;;;1.25;;
66270;SDS011;53063;39.614;8.814;2023-03-01T07:12:24;3.65;;;1.25;;
66270;SDS011;53063;39.614;8.814;2023-03-01T07:14:50;2.13;;;1.30;;
66270;SDS011;53063;39.614;8.814;2023-03-01T07:17:16;4.75;;;2.00;;
66270;SDS011;53063;39.614;8.814;2023-03-01T07:19:42;12.05;;;7.10;;
66270;SDS011;53063;39.614;8.814;2023-03-01T07:22:08;9.82;;;6.28;;
66270;SDS011;53063;39.614;8.814;2023-03-01T07:24:34;3.55;;;2.80;;
66270;SDS011;53063;39.614;8.814;2023-03-01T07:27:00;2.20;;;1.70;;
66270;SDS011;53063;39.614;8.814;2023-03-01T07:29:26;3.28;;;1.73;;
66270;SDS011;53063;39.614;8.814;2023-03-01T07:31:54;3.38;;;1.48;;
66270;SDS011;53063;39.614;8.814;2023-03-01T07:34:20;2.17;;;1.13;;
66270;SDS011;53063;39.614;8.814;2023-03-01T07:36:46;17.52;;;6.00;;
66270;SDS011;53063;39.614;8.814;2023-03-01T07:39:12;4.50;;;2.05;;
66270;SDS011;53063;39.614;8.814;2023-03-01T07:41:38;10.52;;;8.25;;
66270;SDS011;53063;39.614;8.814;2023-03-01T07:44:04;4.63;;;2.50;;
66270;SDS011;53063;39.614;8.814;2023-03-01T07:46:30;26.05;;;14.43;;
66270;SDS011;53063;39.614;8.814;2023-03-01T07:48:56;5.22;;;3.05;;
66270;SDS011;53063;39.614;8.814;2023-03-01T07:51:23;10.82;;;5.22;;
66270;SDS011;53063;39.614;8.814;2023-03-01T07:53:49;3.58;;;1.67;;
66270;SDS011;53063;39.614;8.814;2023-03-01T07:56:15;4.15;;;2.65;;
66270;SDS011;53063;39.614;8.814;2023-03-01T07:58:43;3.33;;;1.80;;
66270;SDS011;53063;39.614;8.814;2023-03-01T08:01:14;3.15;;;2.05;;
66270;SDS011;53063;39.614;8.814;2023-03-01T08:03:41;5.05;;;2.20;;
66270;SDS011;53063;39.614;8.814;2023-03-01T08:06:09;3.53;;;1.88;;
66270;SDS011;53063;39.614;8.814;2023-03-01T08:08:36;3.67;;;1.60;;
66270;SDS011;53063;39.614;8.814;2023-03-01T08:11:03;2.65;;;1.85;;
66270;SDS011;53063;39.614;8.814;2023-03-01T08:13:30;3.88;;;1.95;;
66270;SDS011;53063;39.614;8.814;2023-03-01T08:16:03;4.93;;;2.30;;
66270;SDS011;53063;39.614;8.814;2023-03-01T08:18:33;5.65;;;2.28;;
66270;SDS011;53063;39.614;8.814;2023-03-01T08:21:03;4.90;;;2.63;;
66270;SDS011;53063;39.614;8.814;2023-03-01T08:23:30;3.88;;;2.22;;
66270;SDS011;53063;39.614;8.814;2023-03-01T08:26:02;3.70;;;2.17;;
66270;SDS011;53063;39.614;8.814;2023-03-01T08:28:29;6.53;;;3.53;;
66270;SDS011;53063;39.614;8.814;2023-03-01T08:30:55;3.20;;;2.25;;
66270;SDS011;53063;39.614;8.814;2023-03-01T08:33:21;4.97;;;2.88;;
66270;SDS011;53063;39.614;8.814;2023-03-01T08:35:47;3.03;;;2.30;;
66270;SDS011;53063;39.614;8.814;2023-03-01T08:38:12;3.70;;;2.40;;
66270;SDS011;53063;39.614;8.814;2023-03-01T08:40:38;7.25;;;4.68;;
66270;SDS011;53063;39.614;8.814;2023-03-01T08:43:04;7.13;;;3.60;;
66270;SDS011;53063;39.614;8.814;2023-03-01T08:45:30;5.65;;;3.42;;
66270;SDS011;53063;39.614;8.814;2023-03-01T08:47:56;5.57;;;3.47;;
66270;SDS011;53063;39.614;8.814;2023-03-01T08:50:22;7.25;;;3.45;;
66270;SDS011;53063;39.614;8.814;2023-03-01T08:52:49;6.53;;;2.75;;
66270;SDS011;53063;39.614;8.814;2023-03-01T08:55:16;3.35;;;2.08;;
66270;SDS011;53063;39.614;8.814;2023-03-01T08:57:43;4.22;;;2.60;;
66270;SDS011;53063;39.614;8.814;2023-03-01T09:00:09;4.22;;;2.40;;
66270;SDS011;53063;39.614;8.814;2023-03-01T09:02:40;5.20;;;3.30;;
66270;SDS011;53063;39.614;8.814;2023-03-01T09:05:05;5.15;;;3.92;;
66270;SDS011;53063;39.614;8.814;2023-03-01T09:07:32;4.60;;;3.13;;
66270;SDS011;53063;39.614;8.814;2023-03-01T09:09:58;4.25;;;3.15;;
66270;SDS011;53063;39.614;8.814;2023-03-01T09:12:24;6.28;;;3.70;;
66270;SDS011;53063;39.614;8.814;2023-03-01T09:14:50;4.97;;;2.97;;
66270;SDS011;53063;39.614;8.814;2023-03-01T09:17:16;4.25;;;2.55;;
66270;SDS011;53063;39.614;8.814;2023-03-01T09:19:42;4.75;;;2.38;;
66270;SDS011;53063;39.614;8.814;2023-03-01T09:22:08;4.80;;;3.90;;
66270;SDS011;53063;39.614;8.814;2023-03-01T09:24:34;6.97;;;2.47;;
66270;SDS011;53063;39.614;8.814;2023-03-01T09:26:59;4.10;;;2.40;;
66270;SDS011;53063;39.614;8.814;2023-03-01T09:29:26;4.43;;;2.58;;
66270;SDS011;53063;39.614;8.814;2023-03-01T09:31:52;4.32;;;2.70;;
66270;SDS011;53063;39.614;8.814;2023-03-01T09:34:20;3.75;;;2.30;;
66270;SDS011;53063;39.614;8.814;2023-03-01T09:36:49;2.65;;;1.90;;
66270;SDS011;53063;39.614;8.814;2023-03-01T09:39:15;9.05;;;4.63;;
66270;SDS011;53063;39.614;8.814;2023-03-01T09:46:43;2.78;;;1.52;;
66270;SDS011;53063;39.614;8.814;2023-03-01T09:49:15;1.33;;;1.20;;
66270;SDS011;53063;39.614;8.814;2023-03-01T09:54:24;3.10;;;1.60;;
66270;SDS011;53063;39.614;8.814;2023-03-01T10:10:36;2.25;;;1.30;;
66270;SDS011;53063;39.614;8.814;2023-03-01T10:13:14;2.13;;;1.23;;
66270;SDS011;53063;39.614;8.814;2023-03-01T10:15:56;10.95;;;5.65;;
66270;SDS011;53063;39.614;8.814;2023-03-01T10:18:27;4.50;;;2.10;;
66270;SDS011;53063;39.614;8.814;2023-03-01T10:23:45;3.78;;;1.88;;
66270;SDS011;53063;39.614;8.814;2023-03-01T10:26:24;2.45;;;1.80;;
66270;SDS011;53063;39.614;8.814;2023-03-01T10:29:13;3.75;;;2.30;;
66270;SDS011;53063;39.614;8.814;2023-03-01T10:31:44;6.47;;;3.05;;
66270;SDS011;53063;39.614;8.814;2023-03-01T10:34:17;7.72;;;3.67;;
66270;SDS011;53063;39.614;8.814;2023-03-01T10:36:49;2.83;;;2.03;;
66270;SDS011;53063;39.614;8.814;2023-03-01T10:39:17;4.00;;;2.08;;
66270;SDS011;53063;39.614;8.814;2023-03-01T10:42:02;5.13;;;3.43;;
66270;SDS011;53063;39.614;8.814;2023-03-01T10:44:43;8.68;;;3.05;;
66270;SDS011;53063;39.614;8.814;2023-03-01T10:47:15;11.15;;;7.00;;
66270;SDS011;53063;39.614;8.814;2023-03-01T10:50:06;7.07;;;3.75;;
66270;SDS011;53063;39.614;8.814;2023-03-01T10:52:55;5.07;;;4.03;;
66270;SDS011;53063;39.614;8.814;2023-03-01T10:55:31;3.42;;;1.75;;
66270;SDS011;53063;39.614;8.814;2023-03-01T11:00:32;2.95;;;1.80;;
66270;SDS011;53063;39.614;8.814;2023-03-01T11:05:25;4.05;;;1.52;;
66270;SDS011;53063;39.614;8.814;2023-03-01T11:07:54;3.78;;;1.48;;
66270;SDS011;53063;39.614;8.814;2023-03-01T11:12:50;4.10;;;2.40;;
66270;SDS011;53063;39.614;8.814;2023-03-01T11:15:24;4.28;;;1.30;;
66270;SDS011;53063;39.614;8.814;2023-03-01T11:17:54;6.28;;;1.90;;
66270;SDS011;53063;39.614;8.814;2023-03-01T11:20:25;4.18;;;1.58;;
66270;SDS011;53063;39.614;8.814;2023-03-01T11:23:12;9.10;;;2.03;;
66270;SDS011;53063;39.614;8.814;2023-03-01T11:25:41;3.95;;;1.40;;
66270;SDS011;53063;39.614;8.814;2023-03-01T11:28:15;6.13;;;2.85;;
66270;SDS011;53063;39.614;8.814;2023-03-01T11:30:56;3.42;;;1.67;;
66270;SDS011;53063;39.614;8.814;2023-03-01T11:39:01;5.53;;;2.40;;
66270;SDS011;53063;39.614;8.814;2023-03-01T11:41:35;2.72;;;1.63;;
66270;SDS011;53063;39.614;8.814;2023-03-01T11:44:12;5.30;;;2.25;;
66270;SDS011;53063;39.614;8.814;2023-03-01T11:52:08;6.30;;;2.10;;
66270;SDS011;53063;39.614;8.814;2023-03-01T12:09:05;4.50;;;2.40;;
66270;SDS011;53063;39.614;8.814;2023-03-01T12:11:41;6.90;;;3.22;;
66270;SDS011;53063;39.614;8.814;2023-03-01T12:22:37;2.88;;;1.77;;
66270;SDS011;53063;39.614;8.814;2023-03-01T12:42:02;5.45;;;2.70;;
66270;SDS011;53063;39.614;8.814;2023-03-01T12:50:17;6.68;;;3.03;;
66270;SDS011;53063;39.614;8.814;2023-03-01T12:52:47;3.78;;;1.30;;
66270;SDS011;53063;39.614;8.814;2023-03-01T12:55:31;5.75;;;2.40;;
66270;SDS011;53063;39.614;8.814;2023-03-01T12:58:15;2.60;;;1.48;;
66270;SDS011;53063;39.614;8.814;2023-03-01T13:06:25;2.88;;;1.00;;
66270;SDS011;53063;39.614;8.814;2023-03-01T13:09:09;3.03;;;1.60;;
66270;SDS011;53063;39.614;8.814;2023-03-01T13:12:02;3.63;;;2.03;;
66270;SDS011;53063;39.614;8.814;2023-03-01T13:16:57;2.75;;;1.80;;
66270;SDS011;53063;39.614;8.814;2023-03-01T13:19:27;3.03;;;2.05;;
66270;SDS011;53063;39.614;8.814;2023-03-01T13:22:01;1.15;;;1.00;;
66270;SDS011;53063;39.614;8.814;2023-03-01T13:25:02;2.50;;;0.82;;
66270;SDS011;53063;39.614;8.814;2023-03-01T13:27:38;1.85;;;1.00;;
66270;SDS011;53063;39.614;8.814;2023-03-01T13:30:12;2.38;;;1.23;;
66270;SDS011;53063;39.614;8.814;2023-03-01T13:35:56;2.45;;;0.85;;
66270;SDS011;53063;39.614;8.814;2023-03-01T13:41:08;2.60;;;1.80;;
66270;SDS011;53063;39.614;8.814;2023-03-01T13:43:34;3.22;;;1.10;;
66270;SDS011;53063;39.614;8.814;2023-03-01T13:46:38;1.15;;;0.80;;
66270;SDS011;53063;39.614;8.814;2023-03-01T13:48:58;1.60;;;0.60;;
66270;SDS011;53063;39.614;8.814;2023-03-01T13:51:27;3.80;;;2.40;;
66270;SDS011;53063;39.614;8.814;2023-03-01T13:53:53;1.00;;;0.90;;
66270;SDS011;53063;39.614;8.814;2023-03-01T13:56:24;2.38;;;1.13;;
66270;SDS011;53063;39.614;8.814;2023-03-01T13:59:02;2.67;;;0.70;;
66270;SDS011;53063;39.614;8.814;2023-03-01T14:03:58;2.13;;;0.93;;
66270;SDS011;53063;39.614;8.814;2023-03-01T14:06:26;2.25;;;1.50;;
66270;SDS011;53063;39.614;8.814;2023-03-01T14:09:10;2.63;;;1.25;;
66270;SDS011;53063;39.614;8.814;2023-03-01T14:11:59;5.38;;;1.92;;
66270;SDS011;53063;39.614;8.814;2023-03-01T14:14:52;2.22;;;0.82;;
66270;SDS011;53063;39.614;8.814;2023-03-01T14:20:08;2.20;;;1.17;;
66270;SDS011;53063;39.614;8.814;2023-03-01T14:22:47;2.38;;;1.65;;
66270;SDS011;53063;39.614;8.814;2023-03-01T14:25:20;4.72;;;1.10;;
66270;SDS011;53063;39.614;8.814;2023-03-01T14:28:33;3.22;;;1.73;;
66270;SDS011;53063;39.614;8.814;2023-03-01T14:30:44;2.45;;;1.35;;
66270;SDS011;53063;39.614;8.814;2023-03-01T14:33:31;1.27;;;0.88;;
66270;SDS011;53063;39.614;8.814;2023-03-01T14:38:36;2.38;;;0.80;;
66270;SDS011;53063;39.614;8.814;2023-03-01T14:41:10;2.30;;;1.00;;
66270;SDS011;53063;39.614;8.814;2023-03-01T14:43:43;1.17;;;1.02;;
66270;SDS011;53063;39.614;8.814;2023-03-01T14:48:50;3.75;;;1.30;;
66270;SDS011;53063;39.614;8.814;2023-03-01T14:51:18;3.85;;;1.88;;
66270;SDS011;53063;39.614;8.814;2023-03-01T14:53:44;2.63;;;1.25;;
66270;SDS011;53063;39.614;8.814;2023-03-01T14:56:14;2.05;;;1.30;;
66270;SDS011;53063;39.614;8.814;2023-03-01T14:58:44;4.97;;;2.75;;
66270;SDS011;53063;39.614;8.814;2023-03-01T15:01:13;4.38;;;1.67;;
66270;SDS011;53063;39.614;8.814;2023-03-01T15:03:42;9.75;;;5.50;;
66270;SDS011;53063;39.614;8.814;2023-03-01T15:09:30;5.38;;;1.40;;
66270;SDS011;53063;39.614;8.814;2023-03-01T15:11:59;4.43;;;1.38;;
66270;SDS011;53063;39.614;8.814;2023-03-01T15:14:43;1.83;;;0.75;;
66270;SDS011;53063;39.614;8.814;2023-03-01T15:17:30;2.35;;;0.77;;
66270;SDS011;53063;39.614;8.814;2023-03-01T15:20:00;1.58;;;0.47;;
66270;SDS011;53063;39.614;8.814;2023-03-01T15:22:29;0.55;;;0.30;;
66270;SDS011;53063;39.614;8.814;2023-03-01T15:24:56;3.25;;;0.45;;
66270;SDS011;53063;39.614;8.814;2023-03-01T15:27:23;1.08;;;0.30;;
66270;SDS011;53063;39.614;8.814;2023-03-01T15:34:50;1.63;;;0.40;;
66270;SDS011;53063;39.614;8.814;2023-03-01T15:37:37;0.30;;;0.20;;
66270;SDS011;53063;39.614;8.814;2023-03-01T15:43:05;2.28;;;0.40;;
66270;SDS011;53063;39.614;8.814;2023-03-01T15:45:57;1.20;;;0.30;;
66270;SDS011;53063;39.614;8.814;2023-03-01T15:48:23;0.77;;;0.22;;
66270;SDS011;53063;39.614;8.814;2023-03-01T15:50:58;1.08;;;0.25;;
66270;SDS011;53063;39.614;8.814;2023-03-01T15:53:24;0.82;;;0.35;;
66270;SDS011;53063;39.614;8.814;2023-03-01T15:55:53;1.35;;;0.30;;
66270;SDS011;53063;39.614;8.814;2023-03-01T15:58:20;0.50;;;0.20;;
66270;SDS011;53063;39.614;8.814;2023-03-01T16:00:48;2.63;;;0.30;;
66270;SDS011;53063;39.614;8.814;2023-03-01T16:03:21;0.77;;;0.40;;
66270;SDS011;53063;39.614;8.814;2023-03-01T16:05:48;0.77;;;0.47;;
66270;SDS011;53063;39.614;8.814;2023-03-01T16:08:15;2.60;;;0.60;;
66270;SDS011;53063;39.614;8.814;2023-03-01T16:10:42;2.00;;;0.50;;
66270;SDS011;53063;39.614;8.814;2023-03-01T16:13:09;4.75;;;1.70;;
66270;SDS011;53063;39.614;8.814;2023-03-01T16:15:35;2.33;;;0.63;;
66270;SDS011;53063;39.614;8.814;2023-03-01T16:18:03;1.08;;;0.30;;
66270;SDS011;53063;39.614;8.814;2023-03-01T16:20:30;1.80;;;0.50;;
66270;SDS011;53063;39.614;8.814;2023-03-01T16:23:00;0.82;;;0.47;;
66270;SDS011;53063;39.614;8.814;2023-03-01T16:25:28;0.40;;;0.40;;
66270;SDS011;53063;39.614;8.814;2023-03-01T16:27:54;0.30;;;0.22;;
66270;SDS011;53063;39.614;8.814;2023-03-01T16:30:23;0.50;;;0.30;;
66270;SDS011;53063;39.614;8.814;2023-03-01T16:32:50;0.73;;;0.30;;
66270;SDS011;53063;39.614;8.814;2023-03-01T16:35:19;1.25;;;0.30;;
66270;SDS011;53063;39.614;8.814;2023-03-01T16:37:46;9.27;;;3.58;;
66270;SDS011;53063;39.614;8.814;2023-03-01T16:40:17;6.05;;;2.70;;
66270;SDS011;53063;39.614;8.814;2023-03-01T16:42:44;2.40;;;1.10;;
66270;SDS011;53063;39.614;8.814;2023-03-01T16:45:10;2.50;;;2.00;;
66270;SDS011;53063;39.614;8.814;2023-03-01T16:47:36;3.90;;;3.03;;
66270;SDS011;53063;39.614;8.814;2023-03-01T16:50:03;3.28;;;2.10;;
66270;SDS011;53063;39.614;8.814;2023-03-01T16:52:29;2.85;;;2.00;;
66270;SDS011;53063;39.614;8.814;2023-03-01T16:54:55;2.25;;;1.40;;
66270;SDS011;53063;39.614;8.814;2023-03-01T16:57:21;2.20;;;1.05;;
66270;SDS011;53063;39.614;8.814;2023-03-01T16:59:48;1.67;;;1.35;;
66270;SDS011;53063;39.614;8.814;2023-03-01T17:02:19;1.73;;;1.48;;
66270;SDS011;53063;39.614;8.814;2023-03-01T17:04:52;3.95;;;1.52;;
66270;SDS011;53063;39.614;8.814;2023-03-01T17:07:18;2.08;;;1.10;;
66270;SDS011;53063;39.614;8.814;2023-03-01T17:09:44;1.95;;;1.75;;
66270;SDS011;53063;39.614;8.814;2023-03-01T17:12:14;2.13;;;1.30;;
66270;SDS011;53063;39.614;8.814;2023-03-01T17:14:41;3.00;;;2.20;;
66270;SDS011;53063;39.614;8.814;2023-03-01T17:17:08;1.33;;;0.90;;